createdAt,value
2018-10-01T00:00:46.608Z,15.53
2018-10-01T00:03:22.391Z,19.13
2018-10-01T00:05:57.535Z,22.07
2018-10-01T00:08:32.560Z,18.83
2018-10-01T00:11:07.630Z,18.07
2018-10-01T00:13:42.548Z,19.87
2018-10-01T00:16:17.502Z,17.67
2018-10-01T00:18:52.307Z,16.63
2018-10-01T00:21:32.563Z,20.10
2018-10-01T00:24:01.790Z,19.87
2018-10-01T00:26:36.508Z,15.63
2018-10-01T00:29:11.330Z,17.13
2018-10-01T00:31:46.803Z,16.30
2018-10-01T00:34:21.780Z,17.47
2018-10-01T00:36:56.628Z,15.23
2018-10-01T00:39:31.532Z,16.13
2018-10-01T00:42:06.661Z,17.57
2018-10-01T00:44:41.583Z,17.00
2018-10-01T00:47:16.617Z,15.83
2018-10-01T00:49:51.390Z,17.20
2018-10-01T00:52:26.214Z,17.57
2018-10-01T00:55:01.113Z,19.17
2018-10-01T00:57:35.841Z,18.20
2018-10-01T01:00:12.069Z,22.33
2018-10-01T01:02:47.068Z,18.93
2018-10-01T01:05:22.006Z,19.60
2018-10-01T01:08:03.758Z,18.30
2018-10-01T01:10:38.889Z,16.57
2018-10-01T01:13:13.967Z,16.63
2018-10-01T01:15:48.772Z,17.87
2018-10-01T01:18:24.290Z,20.10
2018-10-01T01:20:59.913Z,17.40
2018-10-01T01:23:34.694Z,16.00
2018-10-01T01:26:09.855Z,16.80
2018-10-01T01:28:44.488Z,15.20
2018-10-01T01:31:19.338Z,16.23
2018-10-01T01:33:54.108Z,19.73
2018-10-01T01:36:29.030Z,17.00
2018-10-01T01:39:04.631Z,15.67
2018-10-01T01:41:39.880Z,16.77
2018-10-01T01:44:15.589Z,20.50
2018-10-01T01:46:51.057Z,19.60
2018-10-01T01:49:25.745Z,26.17
2018-10-01T01:52:00.893Z,18.03
2018-10-01T01:54:36.411Z,17.13
2018-10-01T01:57:11.298Z,17.97
2018-10-01T01:59:46.322Z,16.50
2018-10-01T02:02:21.266Z,20.73
2018-10-01T02:04:55.920Z,20.37
2018-10-01T02:07:31.434Z,15.97
2018-10-01T02:10:06.598Z,13.23
2018-10-01T02:12:41.640Z,15.83
2018-10-01T02:15:16.514Z,14.23
2018-10-01T02:17:51.675Z,19.00
2018-10-01T02:20:27.184Z,16.27
2018-10-01T02:23:02.002Z,14.57
2018-10-01T02:25:37.031Z,13.77
2018-10-01T02:28:11.801Z,14.03
2018-10-01T02:30:46.670Z,17.43
2018-10-01T02:33:21.710Z,12.57
2018-10-01T02:35:56.782Z,14.27
2018-10-01T02:38:31.677Z,17.10
2018-10-01T02:41:07.642Z,21.20
2018-10-01T02:43:42.474Z,15.17
2018-10-01T02:46:17.430Z,15.20
2018-10-01T02:48:52.858Z,13.60
2018-10-01T02:51:27.859Z,15.13
2018-10-01T02:54:02.278Z,16.33
2018-10-01T02:56:37.041Z,17.90
2018-10-01T02:59:11.983Z,13.70
2018-10-01T03:01:46.856Z,17.60
2018-10-01T03:04:21.728Z,18.80
2018-10-01T03:06:57.301Z,13.83
2018-10-01T03:09:32.017Z,16.33
2018-10-01T03:12:06.901Z,19.70
2018-10-01T03:14:42.602Z,17.00
2018-10-01T03:17:17.300Z,11.40
2018-10-01T03:19:52.335Z,20.67
2018-10-01T03:22:27.352Z,13.90
2018-10-01T03:25:02.096Z,10.17
2018-10-01T03:27:37.090Z,14.10
2018-10-01T03:30:12.595Z,13.63
2018-10-01T03:32:47.553Z,17.20
2018-10-01T03:35:22.498Z,11.57
2018-10-01T03:37:57.397Z,14.20
2018-10-01T03:40:32.287Z,14.80
2018-10-01T03:43:07.474Z,13.63
2018-10-01T03:45:42.539Z,9.20
2018-10-01T03:48:17.477Z,7.90
2018-10-01T03:50:52.774Z,11.40
2018-10-01T03:53:28.265Z,12.33
2018-10-01T03:56:03.168Z,12.17
2018-10-01T03:58:38.275Z,14.53
2018-10-01T04:01:13.231Z,11.20
2018-10-01T04:03:48.096Z,16.97
2018-10-01T04:06:23.245Z,11.00
2018-10-01T04:08:58.394Z,14.33
2018-10-01T04:11:33.344Z,11.30
2018-10-01T04:14:08.214Z,14.73
2018-10-01T04:16:43.490Z,13.50
2018-10-01T04:19:18.346Z,20.63
2018-10-01T04:21:53.182Z,13.63
2018-10-01T04:24:27.990Z,13.53
2018-10-01T04:27:02.920Z,15.63
2018-10-01T04:29:37.738Z,17.53
2018-10-01T04:32:12.746Z,15.13
2018-10-01T04:34:47.667Z,12.83
2018-10-01T04:37:22.550Z,14.20
2018-10-01T04:39:58.154Z,13.80
2018-10-01T04:42:33.148Z,11.40
2018-10-01T04:45:08.091Z,14.13
2018-10-01T04:47:43.182Z,16.20
2018-10-01T04:50:17.943Z,12.00
2018-10-01T04:52:53.414Z,17.83
2018-10-01T04:55:28.100Z,14.57
2018-10-01T04:58:03.197Z,18.93
2018-10-01T05:00:38.302Z,10.47
2018-10-01T05:03:13.395Z,13.73
2018-10-01T05:05:48.616Z,19.37
2018-10-01T05:08:23.524Z,13.10
2018-10-01T05:10:58.996Z,12.40
2018-10-01T05:13:34.645Z,14.53
2018-10-01T05:16:09.633Z,12.47
2018-10-01T05:18:44.805Z,11.33
2018-10-01T05:21:19.610Z,13.93
2018-10-01T05:23:54.419Z,14.33
2018-10-01T05:26:29.329Z,11.50
2018-10-01T05:29:04.417Z,11.33
2018-10-01T05:31:40.258Z,9.77
2018-10-01T05:34:15.328Z,8.47
2018-10-01T05:36:50.620Z,23.00
2018-10-01T05:39:25.668Z,12.03
2018-10-01T05:42:00.468Z,11.23
2018-10-01T05:44:35.869Z,13.03
2018-10-01T05:47:10.621Z,9.23
2018-10-01T05:49:45.841Z,10.30
2018-10-01T05:52:21.008Z,8.90
2018-10-01T05:54:56.997Z,7.80
2018-10-01T05:57:32.721Z,8.90
2018-10-01T06:00:07.935Z,8.40
2018-10-01T06:02:42.814Z,9.90
2018-10-01T06:05:17.967Z,10.93
2018-10-01T06:07:52.759Z,10.13
2018-10-01T06:10:27.915Z,10.87
2018-10-01T06:13:02.614Z,11.77
2018-10-01T06:15:38.291Z,10.50
2018-10-01T06:18:13.960Z,12.30
2018-10-01T06:20:49.757Z,10.30
2018-10-01T06:23:24.701Z,7.73
2018-10-01T06:25:59.522Z,10.00
2018-10-01T06:28:35.174Z,9.60
2018-10-01T06:31:10.761Z,13.20
2018-10-01T06:33:46.124Z,11.33
2018-10-01T06:36:21.306Z,12.77
2018-10-01T06:38:56.289Z,9.67
2018-10-01T06:41:31.268Z,14.60
2018-10-01T06:44:07.154Z,13.47
2018-10-01T06:46:41.981Z,9.53
2018-10-01T06:49:16.860Z,9.60
2018-10-01T06:51:52.514Z,10.33
2018-10-01T06:54:27.329Z,18.33
2018-10-01T06:57:03.149Z,5.20
2018-10-01T06:59:38.011Z,8.80
2018-10-01T07:02:12.957Z,14.73
2018-10-01T07:04:47.952Z,11.23
2018-10-01T07:07:22.702Z,10.00
2018-10-01T07:09:58.294Z,9.23
2018-10-01T07:12:27.741Z,5.50
2018-10-01T07:15:02.857Z,7.13
2018-10-01T07:17:38.162Z,13.20
2018-10-01T07:20:13.246Z,7.33
2018-10-01T07:22:48.734Z,10.53
2018-10-01T07:25:23.705Z,8.63
2018-10-01T07:27:58.677Z,9.40
2018-10-01T07:30:33.882Z,6.77
2018-10-01T07:33:08.513Z,5.93
2018-10-01T07:35:43.424Z,7.73
2018-10-01T07:38:19.187Z,6.50
2018-10-01T07:40:55.314Z,5.00
2018-10-01T07:43:30.785Z,8.03
2018-10-01T07:46:05.605Z,6.43
2018-10-01T07:48:40.931Z,4.60
2018-10-01T07:51:15.903Z,6.00
2018-10-01T07:53:50.991Z,5.20
2018-10-01T07:56:25.869Z,5.70
2018-10-01T07:59:01.313Z,8.10
2018-10-01T08:01:36.785Z,6.13
2018-10-01T08:04:11.854Z,4.17
2018-10-01T08:06:46.847Z,4.80
2018-10-01T08:09:21.934Z,7.17
2018-10-01T08:11:56.949Z,3.57
2018-10-01T08:14:32.016Z,13.43
2018-10-01T08:17:07.168Z,7.40
2018-10-01T08:19:42.214Z,8.30
2018-10-01T08:22:16.837Z,6.30
2018-10-01T08:24:52.194Z,5.03
2018-10-01T08:27:27.552Z,4.97
2018-10-01T08:30:02.574Z,6.37
2018-10-01T08:32:37.513Z,6.60
2018-10-01T08:35:12.651Z,14.40
2018-10-01T08:37:47.671Z,7.97
2018-10-01T08:40:27.505Z,5.80
2018-10-01T08:43:02.346Z,4.87
2018-10-01T08:45:37.321Z,5.20
2018-10-01T08:48:13.836Z,10.83
2018-10-01T08:50:55.922Z,5.10
2018-10-01T08:53:36.824Z,4.83
2018-10-01T08:56:11.810Z,6.87
2018-10-01T08:58:46.673Z,7.70
2018-10-01T09:01:21.793Z,5.90
2018-10-01T09:03:57.592Z,8.60
2018-10-01T09:06:32.626Z,5.43
2018-10-01T09:09:09.725Z,7.27
2018-10-01T09:11:44.660Z,7.53
2018-10-01T09:14:19.551Z,4.33
2018-10-01T09:16:54.867Z,6.37
2018-10-01T09:19:30.576Z,6.27
2018-10-01T09:22:05.246Z,5.00
2018-10-01T09:24:40.120Z,5.37
2018-10-01T09:27:15.057Z,5.47
2018-10-01T09:29:50.110Z,6.87
2018-10-01T09:32:24.891Z,4.60
2018-10-01T09:35:00.726Z,7.10
2018-10-01T09:37:35.924Z,4.23
2018-10-01T09:40:10.980Z,7.77
2018-10-01T09:42:45.962Z,7.30
2018-10-01T09:45:20.876Z,6.47
2018-10-01T09:47:55.944Z,4.03
2018-10-01T09:50:31.103Z,6.00
2018-10-01T09:53:06.265Z,4.97
2018-10-01T09:55:41.278Z,6.20
2018-10-01T09:58:16.438Z,7.10
2018-10-01T10:00:56.636Z,4.23
2018-10-01T10:03:32.231Z,4.60
2018-10-01T10:06:07.773Z,4.73
2018-10-01T10:08:42.481Z,5.63
2018-10-01T10:11:17.774Z,10.40
2018-10-01T10:13:52.563Z,2.23
2018-10-01T10:16:27.682Z,3.30
2018-10-01T10:19:03.026Z,9.33
2018-10-01T10:21:38.103Z,3.40
2018-10-01T10:24:13.054Z,4.07
2018-10-01T10:26:49.017Z,5.57
2018-10-01T10:29:24.140Z,2.13
2018-10-01T10:31:59.231Z,3.50
2018-10-01T10:34:34.435Z,5.23
2018-10-01T10:37:09.431Z,4.30
2018-10-01T10:39:44.423Z,2.60
2018-10-01T10:42:19.401Z,4.93
2018-10-01T10:44:54.501Z,2.50
2018-10-01T10:47:29.606Z,6.53
2018-10-01T10:50:04.869Z,2.20
2018-10-01T10:52:40.040Z,4.30
2018-10-01T10:55:15.136Z,3.30
2018-10-01T10:57:50.191Z,6.60
2018-10-01T11:00:25.023Z,3.87
2018-10-01T11:03:00.136Z,3.30
2018-10-01T11:05:34.964Z,2.10
2018-10-01T11:08:10.362Z,3.53
2018-10-01T11:10:45.334Z,3.33
2018-10-01T11:13:20.373Z,5.10
2018-10-01T11:15:55.412Z,5.40
2018-10-01T11:18:30.349Z,3.77
2018-10-01T11:21:05.956Z,2.30
2018-10-01T11:23:40.980Z,2.93
2018-10-01T11:26:15.681Z,3.10
2018-10-01T11:28:50.733Z,3.20
2018-10-01T11:31:26.682Z,2.60
2018-10-01T11:34:01.920Z,2.23
2018-10-01T11:36:36.783Z,1.40
2018-10-01T11:39:13.120Z,2.00
2018-10-01T11:41:48.132Z,2.00
2018-10-01T11:44:23.128Z,1.80
2018-10-01T11:46:58.282Z,5.40
2018-10-01T11:49:33.246Z,3.53
2018-10-01T11:52:09.876Z,3.33
2018-10-01T11:54:45.088Z,5.60
2018-10-01T11:57:20.786Z,4.20
2018-10-01T11:59:56.264Z,4.10
2018-10-01T12:02:31.786Z,6.70
2018-10-01T12:05:07.791Z,5.57
2018-10-01T12:07:43.072Z,4.30
2018-10-01T12:10:18.014Z,8.60
2018-10-01T12:12:52.802Z,2.70
2018-10-01T12:15:27.687Z,8.90
2018-10-01T12:18:03.052Z,6.50
2018-10-01T12:20:38.011Z,3.57
2018-10-01T12:23:12.906Z,3.10
2018-10-01T12:25:48.191Z,7.67
2018-10-01T12:28:23.340Z,7.37
2018-10-01T12:31:01.330Z,4.63
2018-10-01T12:33:37.053Z,5.13
2018-10-01T12:36:12.726Z,10.60
2018-10-01T12:38:47.443Z,9.50
2018-10-01T12:41:23.289Z,7.30
2018-10-01T12:43:58.312Z,6.20
2018-10-01T12:46:33.274Z,8.43
2018-10-01T12:49:08.194Z,9.47
2018-10-01T12:51:43.322Z,3.03
2018-10-01T12:54:18.258Z,8.00
2018-10-01T12:56:52.996Z,4.37
2018-10-01T12:59:27.887Z,6.10
2018-10-01T13:02:02.831Z,9.27
2018-10-01T13:04:37.876Z,5.70
2018-10-01T13:07:13.154Z,9.17
2018-10-01T13:09:48.010Z,5.83
2018-10-01T13:12:23.119Z,2.43
2018-10-01T13:14:58.731Z,6.33
2018-10-01T13:17:33.671Z,6.03
2018-10-01T13:20:08.984Z,4.20
2018-10-01T13:22:43.686Z,11.97
2018-10-01T13:25:18.751Z,6.20
2018-10-01T13:27:54.012Z,8.70
2018-10-01T13:30:29.175Z,5.90
2018-10-01T13:33:04.713Z,7.23
2018-10-01T13:35:39.850Z,10.23
2018-10-01T13:38:15.831Z,10.70
2018-10-01T13:40:50.842Z,13.80
2018-10-01T13:43:25.685Z,7.43
2018-10-01T13:46:01.462Z,11.10
2018-10-01T13:48:36.569Z,12.53
2018-10-01T13:51:12.607Z,9.60
2018-10-01T13:53:47.558Z,16.10
2018-10-01T13:56:22.815Z,14.53
2018-10-01T13:58:57.681Z,11.40
2018-10-01T14:01:32.849Z,13.50
2018-10-01T14:04:07.904Z,11.73
2018-10-01T14:06:42.880Z,12.53
2018-10-01T14:09:18.508Z,13.67
2018-10-01T14:11:53.734Z,11.43
2018-10-01T14:14:28.676Z,9.47
2018-10-01T14:17:03.532Z,15.73
2018-10-01T14:19:39.505Z,5.83
2018-10-01T14:22:14.572Z,8.90
2018-10-01T14:24:49.391Z,10.63
2018-10-01T14:27:24.529Z,13.20
2018-10-01T14:29:59.556Z,9.90
2018-10-01T14:32:34.969Z,17.53
2018-10-01T14:35:09.780Z,15.27
2018-10-01T14:37:44.971Z,11.60
2018-10-01T14:40:20.314Z,9.80
2018-10-01T14:42:55.483Z,12.20
2018-10-01T14:45:30.708Z,4.30
2018-10-01T14:48:05.524Z,9.13
2018-10-01T14:50:41.017Z,10.00
2018-10-01T14:53:16.058Z,9.50
2018-10-01T14:55:50.937Z,9.63
2018-10-01T14:58:26.030Z,5.07
2018-10-01T15:01:00.960Z,12.13
2018-10-01T15:03:36.630Z,9.77
2018-10-01T15:06:11.871Z,7.57
2018-10-01T15:08:47.162Z,7.83
2018-10-01T15:11:22.743Z,5.77
2018-10-01T15:13:57.649Z,10.83
2018-10-01T15:16:32.974Z,6.60
2018-10-01T15:19:07.998Z,7.40
2018-10-01T15:21:42.950Z,7.17
2018-10-01T15:24:18.156Z,9.30
2018-10-01T15:26:53.149Z,5.00
2018-10-01T15:29:28.308Z,6.23
2018-10-01T15:32:03.267Z,6.20
2018-10-01T15:34:38.325Z,8.23
2018-10-01T15:37:13.318Z,6.83
2018-10-01T15:39:48.505Z,4.07
2018-10-01T15:42:23.474Z,3.77
2018-10-01T15:44:58.950Z,3.87
2018-10-01T15:47:34.708Z,2.90
2018-10-01T15:50:09.726Z,4.73
2018-10-01T15:52:44.850Z,5.27
2018-10-01T15:55:19.564Z,8.40
2018-10-01T15:57:54.762Z,2.90
2018-10-01T16:00:30.329Z,5.80
2018-10-01T16:03:05.627Z,4.43
2018-10-01T16:05:41.236Z,9.33
2018-10-01T16:08:16.956Z,4.30
2018-10-01T16:10:52.306Z,6.97
2018-10-01T16:13:27.003Z,5.20
2018-10-01T16:16:02.498Z,12.23
2018-10-01T16:18:37.601Z,7.80
2018-10-01T16:21:12.715Z,5.30
2018-10-01T16:23:47.643Z,9.57
2018-10-01T16:26:23.113Z,6.80
2018-10-01T16:28:57.997Z,14.33
2018-10-01T16:31:33.710Z,3.43
2018-10-01T16:34:08.875Z,4.30
2018-10-01T16:36:43.955Z,5.80
2018-10-01T16:39:18.929Z,10.80
2018-10-01T16:41:54.147Z,7.67
2018-10-01T16:44:23.645Z,6.93
2018-10-01T16:46:58.836Z,6.17
2018-10-01T16:49:34.217Z,8.03
2018-10-01T16:52:10.589Z,6.50
2018-10-01T16:54:45.724Z,8.30
2018-10-01T16:57:20.887Z,8.93
2018-10-01T16:59:55.622Z,7.20
2018-10-01T17:02:30.840Z,10.60
2018-10-01T17:05:06.723Z,7.17
2018-10-01T17:07:41.855Z,7.50
2018-10-01T17:10:16.782Z,4.97
2018-10-01T17:12:51.786Z,5.50
2018-10-01T17:15:27.487Z,6.37
2018-10-01T17:18:03.230Z,9.80
2018-10-01T17:20:38.129Z,8.10
2018-10-01T17:23:13.387Z,7.33
2018-10-01T17:25:48.480Z,7.20
2018-10-01T17:28:23.671Z,7.33
2018-10-01T17:30:58.800Z,4.13
2018-10-01T17:33:34.013Z,9.67
2018-10-01T17:36:08.932Z,6.87
2018-10-01T17:38:43.883Z,5.47
2018-10-01T17:41:18.896Z,9.27
2018-10-01T17:43:54.160Z,7.53
2018-10-01T17:46:29.122Z,12.03
2018-10-01T17:49:04.273Z,8.50
2018-10-01T17:51:46.706Z,5.93
2018-10-01T17:54:22.688Z,7.90
2018-10-01T17:57:00.409Z,13.90
2018-10-01T17:59:36.383Z,9.07
2018-10-01T18:02:11.433Z,5.90
2018-10-01T18:04:46.349Z,11.47
2018-10-01T18:07:21.574Z,6.47
2018-10-01T18:09:56.622Z,13.00
2018-10-01T18:12:31.677Z,8.13
2018-10-01T18:15:08.222Z,10.87
2018-10-01T18:17:43.400Z,6.03
2018-10-01T18:20:18.624Z,11.00
2018-10-01T18:22:53.632Z,11.67
2018-10-01T18:25:29.802Z,6.43
2018-10-01T18:28:05.461Z,9.70
2018-10-01T18:30:41.509Z,7.20
2018-10-01T18:33:16.670Z,18.07
2018-10-01T18:35:52.198Z,6.30
2018-10-01T18:38:27.289Z,9.13
2018-10-01T18:41:02.440Z,12.13
2018-10-01T18:43:37.996Z,12.27
2018-10-01T18:46:14.233Z,8.77
2018-10-01T18:48:49.446Z,15.37
2018-10-01T18:51:24.444Z,9.00
2018-10-01T18:53:59.784Z,11.30
2018-10-01T18:56:35.084Z,11.73
2018-10-01T18:59:10.288Z,18.00
2018-10-01T19:01:45.684Z,10.40
2018-10-01T19:04:21.524Z,6.13
2018-10-01T19:06:56.641Z,9.77
2018-10-01T19:09:32.940Z,8.90
2018-10-01T19:12:08.476Z,9.27
2018-10-01T19:14:43.744Z,12.50
2018-10-01T19:17:19.137Z,9.70
2018-10-01T19:19:54.142Z,10.90
2018-10-01T19:22:30.248Z,15.83
2018-10-01T19:25:06.799Z,9.10
2018-10-01T19:27:41.838Z,9.83
2018-10-01T19:30:16.991Z,7.30
2018-10-01T19:32:52.250Z,8.73
2018-10-01T19:35:27.207Z,10.37
2018-10-01T19:38:02.368Z,12.90
2018-10-01T19:40:37.534Z,12.33
2018-10-01T19:43:12.555Z,10.10
2018-10-01T19:45:48.021Z,9.77
2018-10-01T19:48:23.905Z,10.43
2018-10-01T19:50:58.933Z,11.07
2018-10-01T19:53:34.682Z,11.33
2018-10-01T19:56:10.152Z,11.30
2018-10-01T19:58:45.035Z,9.87
2018-10-01T20:01:20.316Z,11.07
2018-10-01T20:03:55.504Z,12.70
2018-10-01T20:06:30.688Z,7.77
2018-10-01T20:09:09.001Z,9.17
2018-10-01T20:11:44.438Z,13.23
2018-10-01T20:14:19.423Z,5.67
2018-10-01T20:16:54.633Z,6.43
2018-10-01T20:19:29.661Z,7.80
2018-10-01T20:22:04.869Z,10.50
2018-10-01T20:24:40.339Z,7.83
2018-10-01T20:27:15.769Z,10.27
2018-10-01T20:29:51.118Z,10.10
2018-10-01T20:32:26.074Z,5.60
2018-10-01T20:35:02.249Z,8.50
2018-10-01T20:37:37.919Z,9.90
2018-10-01T20:40:13.079Z,6.17
2018-10-01T20:42:47.805Z,9.13
2018-10-01T20:45:22.925Z,11.63
2018-10-01T20:47:57.992Z,16.83
2018-10-01T20:50:33.422Z,7.17
2018-10-01T20:53:08.386Z,7.00
2018-10-01T20:55:43.635Z,11.93
2018-10-01T20:58:14.033Z,8.17
2018-10-01T21:00:49.551Z,10.27
2018-10-01T21:03:24.784Z,17.97
2018-10-01T21:05:59.692Z,10.70
2018-10-01T21:08:35.091Z,10.23
2018-10-01T21:11:10.104Z,7.10
2018-10-01T21:13:45.313Z,10.67
2018-10-01T21:16:20.349Z,10.87
2018-10-01T21:18:55.332Z,19.80
2018-10-01T21:21:30.157Z,6.23
2018-10-01T21:24:05.554Z,9.20
2018-10-01T21:26:40.567Z,10.93
2018-10-01T21:29:15.776Z,9.37
2018-10-01T21:31:50.952Z,8.13
2018-10-01T21:34:26.330Z,9.20
2018-10-01T21:36:55.932Z,12.73
2018-10-01T21:40:07.833Z,10.80
2018-10-01T21:42:43.779Z,9.30
2018-10-01T21:45:19.487Z,10.30
2018-10-01T21:47:54.585Z,9.07
2018-10-01T21:50:29.584Z,17.47
2018-10-01T21:53:05.283Z,8.40
2018-10-01T21:55:40.517Z,9.97
2018-10-01T21:58:15.502Z,11.83
2018-10-01T22:00:55.837Z,14.80
2018-10-01T22:03:31.708Z,12.00
2018-10-01T22:06:06.722Z,9.50
2018-10-01T22:08:42.327Z,13.33
2018-10-01T22:11:17.442Z,9.70
2018-10-01T22:13:52.570Z,8.63
2018-10-01T22:16:27.997Z,9.90
2018-10-01T22:19:04.646Z,11.27
2018-10-01T22:21:39.668Z,10.30
2018-10-01T22:24:14.626Z,8.63
2018-10-01T22:26:49.791Z,8.97
2018-10-01T22:29:25.294Z,5.50
2018-10-01T22:32:00.565Z,11.73
2018-10-01T22:34:35.804Z,4.33
2018-10-01T22:37:10.769Z,8.07
2018-10-01T22:39:46.005Z,8.33
2018-10-01T22:42:21.618Z,7.20
2018-10-01T22:44:56.634Z,8.97
2018-10-01T22:47:31.763Z,7.50
2018-10-01T22:50:07.035Z,8.43
2018-10-01T22:52:41.936Z,13.43
2018-10-01T22:55:16.821Z,12.13
2018-10-01T22:57:51.984Z,6.57
2018-10-01T23:00:27.614Z,9.87
2018-10-01T23:03:02.636Z,6.83
2018-10-01T23:05:38.334Z,11.03
2018-10-01T23:08:13.276Z,6.77
2018-10-01T23:10:48.474Z,6.97
2018-10-01T23:13:23.440Z,6.13
2018-10-01T23:15:58.171Z,6.70
2018-10-01T23:18:33.596Z,11.20
2018-10-01T23:21:08.689Z,11.50
2018-10-01T23:23:44.347Z,8.10
2018-10-01T23:26:19.248Z,8.03
2018-10-01T23:28:54.894Z,8.10
2018-10-01T23:31:29.628Z,5.53
2018-10-01T23:34:04.539Z,6.63
2018-10-01T23:36:39.388Z,6.20
2018-10-01T23:39:14.333Z,12.00
2018-10-01T23:41:49.471Z,8.47
2018-10-01T23:44:24.408Z,6.53
2018-10-01T23:46:59.320Z,7.93
2018-10-01T23:49:34.295Z,4.43
2018-10-01T23:52:09.168Z,9.20
2018-10-01T23:54:44.138Z,6.67
2018-10-01T23:57:19.028Z,7.73
2018-10-01T23:59:54.149Z,5.90
